createdAt,value
2023-05-08T00:02:42.052Z,16.80
2023-05-08T00:05:09.167Z,16.80
2023-05-08T00:07:37.836Z,16.80
2023-05-08T00:10:06.389Z,16.80
2023-05-08T00:12:33.345Z,16.70
2023-05-08T00:15:00.599Z,16.80
2023-05-08T00:17:27.837Z,16.80
2023-05-08T00:19:54.830Z,16.80
2023-05-08T00:22:21.646Z,16.80
2023-05-08T00:24:48.615Z,16.80
2023-05-08T00:27:15.564Z,16.70
2023-05-08T00:29:43.124Z,16.50
2023-05-08T00:32:10.530Z,16.50
2023-05-08T00:34:37.423Z,16.50
2023-05-08T00:37:04.283Z,16.50
2023-05-08T00:39:32.138Z,16.40
2023-05-08T00:41:59.132Z,16.50
2023-05-08T00:44:26.238Z,16.50
2023-05-08T00:46:53.316Z,16.30
2023-05-08T00:49:20.602Z,16.10
2023-05-08T00:51:50.887Z,16.20
2023-05-08T00:54:19.032Z,16.10
2023-05-08T00:56:46.515Z,16.30
2023-05-08T00:59:16.001Z,16.10
2023-05-08T01:01:44.139Z,16.10
2023-05-08T01:04:11.306Z,15.90
2023-05-08T01:06:38.117Z,15.90
2023-05-08T01:09:06.834Z,16.10
2023-05-08T01:11:50.174Z,15.90
2023-05-08T01:14:21.452Z,16.00
2023-05-08T01:17:05.356Z,15.90
2023-05-08T01:19:32.132Z,15.90
2023-05-08T01:22:05.891Z,15.70
2023-05-08T01:25:03.195Z,15.60
2023-05-08T01:27:40.273Z,15.80
2023-05-08T01:30:25.477Z,15.80
2023-05-08T01:33:03.477Z,15.60
2023-05-08T01:35:32.627Z,15.80
2023-05-08T01:38:06.476Z,15.60
2023-05-08T01:40:48.184Z,15.50
2023-05-08T01:43:20.497Z,15.60
2023-05-08T01:45:50.340Z,15.70
2023-05-08T01:48:32.712Z,15.80
2023-05-08T01:51:06.052Z,15.70
2023-05-08T01:53:41.305Z,15.60
2023-05-08T01:56:14.516Z,15.60
2023-05-08T01:58:42.854Z,15.70
2023-05-08T02:01:11.755Z,15.70
2023-05-08T02:03:40.092Z,15.70
2023-05-08T02:06:08.047Z,15.90
2023-05-08T02:08:36.310Z,16.00
2023-05-08T02:11:04.251Z,15.80
2023-05-08T02:13:33.203Z,15.70
2023-05-08T02:16:01.900Z,15.70
2023-05-08T02:18:31.960Z,15.70
2023-05-08T02:21:02.310Z,15.70
2023-05-08T02:23:29.887Z,15.80
2023-05-08T02:25:57.453Z,15.90
2023-05-08T02:28:25.133Z,15.80
2023-05-08T02:30:53.271Z,15.80
2023-05-08T02:33:21.121Z,15.70
2023-05-08T02:35:49.189Z,15.70
2023-05-08T02:38:17.094Z,15.80
2023-05-08T02:40:48.722Z,15.80
2023-05-08T02:43:16.041Z,15.90
2023-05-08T02:46:14.862Z,15.80
2023-05-08T02:48:48.363Z,15.70
2023-05-08T02:51:23.854Z,15.70
2023-05-08T02:53:56.655Z,15.60
2023-05-08T02:56:47.148Z,15.70
2023-05-08T02:59:20.311Z,15.80
2023-05-08T03:02:04.842Z,15.70
2023-05-08T03:04:36.668Z,15.60
2023-05-08T03:07:05.687Z,15.60
2023-05-08T03:09:42.959Z,15.60
2023-05-08T03:12:18.372Z,15.70
2023-05-08T03:14:48.504Z,15.90
2023-05-08T03:17:17.760Z,15.50
2023-05-08T03:19:47.559Z,15.50
2023-05-08T03:22:15.372Z,15.60
2023-05-08T03:24:43.165Z,15.60
2023-05-08T03:27:10.401Z,15.50
2023-05-08T03:29:39.839Z,15.60
2023-05-08T03:32:07.360Z,15.40
2023-05-08T03:34:34.862Z,15.20
2023-05-08T03:37:01.579Z,15.30
2023-05-08T03:39:28.442Z,15.20
2023-05-08T03:41:56.895Z,15.20
2023-05-08T03:44:24.413Z,15.30
2023-05-08T03:46:52.899Z,15.00
2023-05-08T03:49:22.818Z,15.00
2023-05-08T03:51:50.207Z,15.20
2023-05-08T03:54:17.243Z,15.20
2023-05-08T03:56:46.087Z,15.30
2023-05-08T03:59:25.294Z,15.20
2023-05-08T04:02:24.358Z,15.30
2023-05-08T04:05:01.738Z,15.30
2023-05-08T04:07:36.858Z,14.90
2023-05-08T04:10:17.704Z,14.90
2023-05-08T04:13:05.639Z,14.80
2023-05-08T04:15:38.639Z,14.90
2023-05-08T04:18:12.784Z,15.00
2023-05-08T04:20:41.518Z,15.20
2023-05-08T04:23:14.918Z,15.00
2023-05-08T04:25:44.384Z,15.10
2023-05-08T04:28:12.449Z,14.90
2023-05-08T04:30:41.227Z,14.80
2023-05-08T04:33:09.405Z,14.90
2023-05-08T04:35:36.400Z,14.80
2023-05-08T04:38:03.477Z,14.80
2023-05-08T04:40:30.313Z,14.80
2023-05-08T04:42:57.695Z,14.50
2023-05-08T04:45:25.541Z,14.50
2023-05-08T04:47:52.481Z,14.60
2023-05-08T04:50:20.296Z,14.70
2023-05-08T04:52:47.370Z,14.70
2023-05-08T04:55:15.867Z,14.70
2023-05-08T04:57:42.774Z,14.60
2023-05-08T05:00:10.846Z,14.70
2023-05-08T05:02:38.378Z,14.60
2023-05-08T05:05:05.910Z,14.60
2023-05-08T05:07:33.176Z,14.60
2023-05-08T05:10:00.953Z,14.30
2023-05-08T05:12:28.237Z,14.20
2023-05-08T05:14:56.633Z,14.20
2023-05-08T05:17:23.561Z,14.30
2023-05-08T05:19:51.607Z,14.50
2023-05-08T05:22:21.828Z,14.50
2023-05-08T05:24:48.714Z,14.60
2023-05-08T05:27:15.586Z,14.60
2023-05-08T05:29:42.668Z,14.60
2023-05-08T05:32:11.720Z,14.50
2023-05-08T05:34:38.778Z,14.40
2023-05-08T05:37:05.902Z,14.40
2023-05-08T05:39:32.933Z,14.10
2023-05-08T05:41:59.871Z,14.40
2023-05-08T05:44:26.846Z,14.50
2023-05-08T05:46:54.826Z,14.20
2023-05-08T05:49:21.667Z,14.00
2023-05-08T05:51:48.694Z,14.10
2023-05-08T05:54:15.672Z,14.20
2023-05-08T05:56:42.712Z,14.20
2023-05-08T05:59:10.558Z,14.40
2023-05-08T06:01:38.757Z,14.40
2023-05-08T06:04:07.370Z,14.40
2023-05-08T06:06:34.415Z,14.30
2023-05-08T06:09:01.671Z,14.40
2023-05-08T06:11:28.553Z,14.20
2023-05-08T06:13:56.224Z,14.30
2023-05-08T06:16:24.941Z,14.40
2023-05-08T06:18:51.988Z,14.40
2023-05-08T06:21:18.938Z,14.50
2023-05-08T06:23:46.201Z,14.40
2023-05-08T06:26:13.389Z,14.30
2023-05-08T06:28:40.417Z,14.40
2023-05-08T06:31:09.071Z,14.30
2023-05-08T06:33:35.977Z,14.20
2023-05-08T06:36:08.930Z,14.20
2023-05-08T06:38:35.825Z,14.10
2023-05-08T06:41:02.726Z,14.10
2023-05-08T06:43:31.506Z,13.90
2023-05-08T06:45:59.092Z,14.10
2023-05-08T06:48:29.290Z,14.20
2023-05-08T06:50:57.338Z,14.10
2023-05-08T06:53:24.321Z,14.30
2023-05-08T06:55:51.915Z,14.10
2023-05-08T06:58:18.721Z,14.20
2023-05-08T07:00:46.133Z,14.20
2023-05-08T07:03:13.643Z,14.10
2023-05-08T07:05:40.599Z,14.10
2023-05-08T07:08:07.725Z,14.10
2023-05-08T07:10:34.831Z,14.20
2023-05-08T07:13:01.999Z,14.40
2023-05-08T07:15:31.538Z,14.30
2023-05-08T07:17:58.990Z,14.40
2023-05-08T07:20:26.915Z,14.50
2023-05-08T07:22:54.055Z,14.50
2023-05-08T07:25:21.053Z,14.40
2023-05-08T07:27:48.113Z,14.50
2023-05-08T07:30:15.372Z,14.70
2023-05-08T07:32:42.259Z,14.60
2023-05-08T07:35:12.294Z,14.40
2023-05-08T07:37:40.239Z,14.50
2023-05-08T07:40:08.778Z,14.60
2023-05-08T07:42:43.173Z,14.70
2023-05-08T07:45:11.937Z,14.60
2023-05-08T07:47:57.585Z,14.50
2023-05-08T07:50:26.607Z,14.40
2023-05-08T07:52:54.088Z,14.60
2023-05-08T07:55:21.658Z,14.50
2023-05-08T07:57:48.734Z,14.50
2023-05-08T08:00:16.184Z,14.50
2023-05-08T08:02:44.305Z,14.40
2023-05-08T08:05:12.926Z,14.40
2023-05-08T08:07:40.143Z,14.50
2023-05-08T08:10:08.577Z,14.60
2023-05-08T08:12:35.513Z,14.50
2023-05-08T08:15:02.507Z,14.40
2023-05-08T08:17:29.499Z,14.40
2023-05-08T08:19:57.188Z,14.60
2023-05-08T08:22:25.758Z,14.60
2023-05-08T08:24:55.907Z,14.70
2023-05-08T08:27:23.301Z,14.80
2023-05-08T08:29:52.581Z,14.80
2023-05-08T08:32:26.666Z,14.80
2023-05-08T08:34:53.548Z,14.80
2023-05-08T08:37:20.438Z,14.90
2023-05-08T08:39:49.277Z,14.90
2023-05-08T08:42:16.361Z,14.90
2023-05-08T08:44:43.360Z,15.00
2023-05-08T08:47:17.685Z,15.00
2023-05-08T08:49:49.690Z,15.00
2023-05-08T08:52:27.048Z,14.90
2023-05-08T08:54:57.066Z,15.10
2023-05-08T08:57:26.292Z,14.90
2023-05-08T08:59:55.274Z,14.80
2023-05-08T09:02:24.004Z,14.90
2023-05-08T09:04:51.101Z,15.00
2023-05-08T09:07:19.612Z,14.90
2023-05-08T09:09:48.790Z,15.00
2023-05-08T09:12:15.666Z,14.90
2023-05-08T09:14:42.777Z,14.80
2023-05-08T09:17:10.317Z,15.10
2023-05-08T09:19:37.532Z,15.00
2023-05-08T09:22:07.264Z,14.90
2023-05-08T09:25:12.154Z,15.00
2023-05-08T09:27:40.450Z,15.00
2023-05-08T09:30:12.229Z,15.00
2023-05-08T09:32:43.897Z,15.10
2023-05-08T09:35:12.464Z,15.10
2023-05-08T09:37:41.726Z,15.20
2023-05-08T09:40:15.888Z,15.20
2023-05-08T09:42:42.807Z,15.10
2023-05-08T09:45:10.344Z,15.00
2023-05-08T09:47:39.774Z,15.10
2023-05-08T09:50:09.106Z,15.20
2023-05-08T09:52:38.000Z,15.10
2023-05-08T09:55:10.070Z,15.20
2023-05-08T09:57:39.595Z,15.10
2023-05-08T10:00:10.988Z,15.10
2023-05-08T10:02:39.916Z,15.20
2023-05-08T10:05:34.665Z,15.10
2023-05-08T10:08:23.539Z,15.30
2023-05-08T10:10:51.330Z,15.30
2023-05-08T10:13:18.204Z,15.20
2023-05-08T10:15:45.889Z,15.40
2023-05-08T10:18:16.047Z,15.50
2023-05-08T10:20:45.779Z,15.40
2023-05-08T10:23:17.617Z,15.50
2023-05-08T10:25:55.184Z,15.60
2023-05-08T10:28:43.904Z,15.60
2023-05-08T10:31:16.348Z,15.50
2023-05-08T10:33:46.297Z,15.60
2023-05-08T10:36:14.877Z,15.70
2023-05-08T10:38:43.491Z,15.80
2023-05-08T10:41:11.380Z,16.00
2023-05-08T10:43:42.799Z,16.40
2023-05-08T10:46:42.240Z,16.70
2023-05-08T10:49:25.730Z,16.60
2023-05-08T10:52:30.536Z,16.70
2023-05-08T10:55:17.620Z,16.90
2023-05-08T10:58:09.602Z,16.80
2023-05-08T11:00:59.991Z,17.00
2023-05-08T11:03:32.685Z,17.00
2023-05-08T11:06:01.555Z,16.90
2023-05-08T11:08:30.655Z,16.90
2023-05-08T11:11:00.761Z,17.00
2023-05-08T11:13:37.456Z,16.80
2023-05-08T11:16:08.559Z,16.80
2023-05-08T11:18:48.580Z,16.80
2023-05-08T11:21:23.887Z,16.70
2023-05-08T11:23:58.176Z,16.70
2023-05-08T11:26:42.588Z,16.90
2023-05-08T11:29:18.407Z,16.90
2023-05-08T11:31:52.853Z,16.80
2023-05-08T11:34:44.462Z,16.90
2023-05-08T11:37:21.722Z,17.10
2023-05-08T11:39:49.230Z,17.30
2023-05-08T11:42:26.031Z,17.50
2023-05-08T11:45:19.730Z,17.70
2023-05-08T11:47:46.684Z,17.80
2023-05-08T11:50:14.695Z,17.60
2023-05-08T11:52:43.431Z,17.60
2023-05-08T11:55:13.873Z,17.50
2023-05-08T11:57:40.941Z,17.30
2023-05-08T12:00:10.026Z,17.30
2023-05-08T12:02:42.128Z,17.30
2023-05-08T12:05:11.866Z,17.30
2023-05-08T12:07:49.850Z,17.60
2023-05-08T12:10:17.761Z,17.70
2023-05-08T12:12:45.446Z,17.80
2023-05-08T12:15:14.844Z,17.70
2023-05-08T12:17:42.912Z,17.60
2023-05-08T12:20:12.249Z,17.50
2023-05-08T12:22:41.425Z,17.60
2023-05-08T12:25:10.640Z,17.80
2023-05-08T12:27:38.598Z,17.60
2023-05-08T12:30:10.870Z,17.60
2023-05-08T12:32:40.088Z,17.60
2023-05-08T12:35:09.372Z,17.20
2023-05-08T12:37:37.195Z,17.20
2023-05-08T12:40:07.093Z,17.30
2023-05-08T12:42:43.997Z,17.40
2023-05-08T12:45:20.906Z,17.40
2023-05-08T12:47:49.631Z,17.40
2023-05-08T12:50:17.930Z,17.40
2023-05-08T12:52:45.170Z,17.50
2023-05-08T12:55:30.003Z,17.60
2023-05-08T12:58:11.953Z,17.40
2023-05-08T13:00:50.090Z,17.50
2023-05-08T13:03:24.583Z,17.70
2023-05-08T13:05:52.914Z,17.80
2023-05-08T13:08:20.018Z,17.90
2023-05-08T13:10:46.904Z,18.10
2023-05-08T13:13:15.519Z,17.90
2023-05-08T13:15:43.017Z,17.90
2023-05-08T13:18:10.928Z,18.10
2023-05-08T13:20:38.597Z,18.30
2023-05-08T13:23:06.252Z,18.60
2023-05-08T13:25:33.918Z,18.40
2023-05-08T13:28:02.798Z,18.30
2023-05-08T13:30:29.869Z,18.30
2023-05-08T13:32:57.192Z,18.40
2023-05-08T13:35:26.565Z,18.40
2023-05-08T13:37:53.632Z,18.10
2023-05-08T13:40:20.581Z,18.20
2023-05-08T13:42:48.068Z,18.20
2023-05-08T13:45:15.630Z,18.00
2023-05-08T13:47:43.163Z,18.00
2023-05-08T13:50:13.532Z,18.10
2023-05-08T13:52:41.165Z,18.20
2023-05-08T13:55:09.951Z,18.20
2023-05-08T13:57:37.600Z,18.20
2023-05-08T14:00:06.297Z,18.50
2023-05-08T14:02:36.002Z,18.40
2023-05-08T14:05:03.872Z,18.40
2023-05-08T14:07:30.829Z,18.00
2023-05-08T14:09:57.811Z,18.00
2023-05-08T14:12:26.247Z,18.30
2023-05-08T14:14:53.248Z,18.30
2023-05-08T14:17:20.381Z,18.30
2023-05-08T14:19:47.423Z,18.40
2023-05-08T14:22:14.398Z,18.20
2023-05-08T14:24:41.381Z,18.30
2023-05-08T14:27:09.449Z,18.30
2023-05-08T14:29:36.529Z,18.20
2023-05-08T14:32:03.793Z,18.10
2023-05-08T14:34:31.581Z,18.00
2023-05-08T14:36:59.036Z,18.00
2023-05-08T14:39:26.179Z,18.20
2023-05-08T14:44:23.142Z,18.30
2023-05-08T14:46:50.260Z,18.10
2023-05-08T14:49:25.402Z,18.10
2023-05-08T14:51:55.942Z,18.10
2023-05-08T14:54:22.958Z,18.20
2023-05-08T14:56:50.205Z,18.10
2023-05-08T14:59:17.322Z,18.10
2023-05-08T15:01:44.427Z,18.00
2023-05-08T15:04:12.006Z,18.00
2023-05-08T15:06:40.517Z,18.30
2023-05-08T15:09:12.050Z,18.80
2023-05-08T15:11:39.275Z,18.90
2023-05-08T15:14:06.383Z,18.90
2023-05-08T15:16:34.179Z,18.70
2023-05-08T15:19:01.149Z,18.60
2023-05-08T15:21:28.677Z,18.70
2023-05-08T15:23:56.236Z,18.70
2023-05-08T15:26:23.581Z,19.00
2023-05-08T15:28:51.040Z,18.80
2023-05-08T15:31:19.900Z,18.50
2023-05-08T15:33:48.262Z,18.60
2023-05-08T15:36:15.732Z,18.70
2023-05-08T15:38:43.194Z,18.60
2023-05-08T15:41:15.044Z,18.70
2023-05-08T15:43:43.142Z,19.00
2023-05-08T15:46:10.987Z,18.80
2023-05-08T15:48:37.889Z,18.90
2023-05-08T15:51:04.794Z,19.00
2023-05-08T15:53:34.159Z,19.10
2023-05-08T15:56:01.412Z,19.20
2023-05-08T15:58:28.575Z,19.10
2023-05-08T16:00:56.967Z,19.10
2023-05-08T16:03:24.964Z,19.10
2023-05-08T16:05:52.020Z,19.10
2023-05-08T16:08:19.888Z,19.00
2023-05-08T16:10:46.764Z,19.20
2023-05-08T16:13:13.844Z,19.40
2023-05-08T16:15:41.330Z,19.30
2023-05-08T16:18:08.297Z,19.30
2023-05-08T16:20:36.369Z,19.40
2023-05-08T16:23:03.483Z,19.60
2023-05-08T16:25:30.415Z,19.40
2023-05-08T16:27:57.337Z,19.30
2023-05-08T16:30:24.278Z,19.10
2023-05-08T16:32:51.255Z,19.10
2023-05-08T16:35:19.582Z,19.30
2023-05-08T16:37:46.937Z,19.30
2023-05-08T16:40:14.051Z,19.50
2023-05-08T16:42:41.324Z,19.50
2023-05-08T16:45:09.464Z,19.30
2023-05-08T16:47:36.711Z,19.50
2023-05-08T16:50:05.501Z,19.30
2023-05-08T16:52:36.982Z,19.20
2023-05-08T16:55:04.514Z,19.00
2023-05-08T16:57:31.326Z,18.90
2023-05-08T16:59:59.809Z,19.00
2023-05-08T17:02:27.805Z,18.90
2023-05-08T17:04:54.834Z,19.00
2023-05-08T17:07:21.822Z,18.90
2023-05-08T17:09:52.989Z,18.90
2023-05-08T17:12:20.155Z,19.00
2023-05-08T17:14:47.641Z,19.00
2023-05-08T17:17:14.517Z,18.90
2023-05-08T17:19:43.338Z,18.60
2023-05-08T17:22:11.158Z,18.60
2023-05-08T17:24:38.324Z,18.60
2023-05-08T17:27:08.784Z,18.40
2023-05-08T17:29:36.283Z,18.50
2023-05-08T17:32:03.583Z,18.60
2023-05-08T17:34:30.566Z,18.70
2023-05-08T17:36:57.564Z,18.60
2023-05-08T17:39:24.616Z,18.70
2023-05-08T17:41:52.000Z,18.80
2023-05-08T17:44:19.134Z,18.60
2023-05-08T17:46:46.236Z,18.50
2023-05-08T17:49:14.786Z,18.50
2023-05-08T17:51:42.813Z,18.60
2023-05-08T17:54:09.757Z,18.60
2023-05-08T17:56:36.761Z,18.50
2023-05-08T17:59:03.726Z,18.60
2023-05-08T18:01:31.091Z,18.70
2023-05-08T18:03:58.095Z,18.20
2023-05-08T18:06:25.127Z,18.30
2023-05-08T18:08:52.079Z,18.30
2023-05-08T18:11:28.503Z,18.30
2023-05-08T18:13:55.765Z,18.20
2023-05-08T18:16:23.277Z,18.30
2023-05-08T18:18:50.672Z,18.20
2023-05-08T18:21:17.689Z,18.30
2023-05-08T18:23:44.756Z,18.20
2023-05-08T18:26:16.365Z,18.00
2023-05-08T18:28:44.451Z,17.90
2023-05-08T18:31:11.960Z,17.90
2023-05-08T18:33:39.912Z,17.90
2023-05-08T18:36:07.389Z,18.00
2023-05-08T18:38:35.026Z,18.10
2023-05-08T18:41:06.079Z,18.00
2023-05-08T18:43:33.534Z,18.10
2023-05-08T18:46:00.692Z,18.00
2023-05-08T18:48:28.011Z,18.00
2023-05-08T18:50:58.882Z,17.90
2023-05-08T18:53:26.042Z,17.80
2023-05-08T18:55:53.251Z,17.70
2023-05-08T18:58:20.460Z,17.90
2023-05-08T19:00:47.740Z,18.00
2023-05-08T19:03:15.120Z,17.90
2023-05-08T19:05:42.598Z,17.80
2023-05-08T19:08:09.817Z,17.70
2023-05-08T19:10:36.758Z,17.60
2023-05-08T19:13:03.765Z,17.50
2023-05-08T19:15:30.674Z,17.60
2023-05-08T19:17:57.829Z,17.60
2023-05-08T19:20:24.915Z,17.70
2023-05-08T19:22:51.802Z,17.60
2023-05-08T19:25:18.722Z,17.60
2023-05-08T19:27:45.747Z,17.50
2023-05-08T19:30:13.354Z,17.50
2023-05-08T19:32:40.652Z,17.40
2023-05-08T19:35:09.220Z,17.40
2023-05-08T19:37:36.527Z,17.40
2023-05-08T19:40:04.097Z,17.40
2023-05-08T19:42:31.069Z,17.30
2023-05-08T19:44:57.949Z,17.40
2023-05-08T19:47:24.817Z,17.40
2023-05-08T19:49:51.744Z,17.50
2023-05-08T19:52:19.785Z,17.40
2023-05-08T19:54:47.525Z,17.40
2023-05-08T19:57:14.531Z,17.40
2023-05-08T19:59:41.377Z,17.40
2023-05-08T20:02:08.330Z,17.30
2023-05-08T20:04:48.874Z,17.20
2023-05-08T20:07:22.052Z,17.20
2023-05-08T20:09:49.005Z,17.30
2023-05-08T20:12:16.101Z,17.20
2023-05-08T20:14:43.156Z,17.10
2023-05-08T20:17:10.041Z,17.20
2023-05-08T20:19:36.952Z,17.20
2023-05-08T20:22:04.127Z,17.20
2023-05-08T20:24:31.044Z,17.00
2023-05-08T20:26:58.138Z,17.10
2023-05-08T20:29:26.499Z,17.30
2023-05-08T20:31:53.917Z,17.30
2023-05-08T20:34:22.122Z,17.20
2023-05-08T20:36:50.085Z,17.30
2023-05-08T20:39:17.049Z,17.20
2023-05-08T20:41:44.294Z,17.20
2023-05-08T20:44:12.516Z,17.10
2023-05-08T20:46:40.899Z,17.10
2023-05-08T20:49:07.815Z,17.00
2023-05-08T20:51:37.328Z,16.90
2023-05-08T20:54:04.317Z,16.90
2023-05-08T20:56:32.078Z,17.00
2023-05-08T20:58:58.989Z,17.00
2023-05-08T21:01:26.085Z,16.90
2023-05-08T21:03:53.641Z,17.00
2023-05-08T21:06:20.531Z,16.90
2023-05-08T21:08:47.487Z,16.80
2023-05-08T21:11:14.805Z,16.90
2023-05-08T21:13:45.187Z,17.00
2023-05-08T21:16:12.305Z,17.00
2023-05-08T21:18:39.222Z,17.10
2023-05-08T21:21:18.078Z,17.00
2023-05-08T21:23:45.252Z,16.90
2023-05-08T21:26:12.659Z,16.70
2023-05-08T21:28:40.488Z,16.90
2023-05-08T21:31:07.984Z,16.80
2023-05-08T21:33:35.115Z,16.80
2023-05-08T21:36:03.646Z,16.70
2023-05-08T21:38:30.739Z,16.70
2023-05-08T21:40:57.580Z,16.60
2023-05-08T21:43:24.614Z,16.60
2023-05-08T21:45:51.506Z,16.70
2023-05-08T21:48:18.381Z,16.80
2023-05-08T21:50:45.341Z,16.70
2023-05-08T21:53:12.245Z,16.70
2023-05-08T21:55:39.296Z,16.80
2023-05-08T21:58:07.272Z,16.70
2023-05-08T22:00:34.121Z,16.80
2023-05-08T22:03:02.160Z,16.80
2023-05-08T22:05:33.166Z,16.90
2023-05-08T22:08:00.455Z,16.80
2023-05-08T22:10:27.427Z,16.60
2023-05-08T22:12:55.109Z,16.70
2023-05-08T22:15:29.622Z,16.60
2023-05-08T22:17:57.889Z,16.60
2023-05-08T22:20:25.013Z,16.60
2023-05-08T22:22:51.948Z,16.40
2023-05-08T22:25:19.025Z,16.50
2023-05-08T22:27:46.146Z,16.50
2023-05-08T22:30:13.490Z,16.50
2023-05-08T22:32:40.704Z,16.40
2023-05-08T22:35:08.136Z,16.40
2023-05-08T22:37:35.000Z,16.50
2023-05-08T22:40:02.106Z,16.40
2023-05-08T22:42:29.206Z,16.40
2023-05-08T22:44:56.916Z,16.40
2023-05-08T22:47:24.119Z,16.40
2023-05-08T22:49:51.459Z,16.50
2023-05-08T22:52:18.321Z,16.30
2023-05-08T22:54:45.152Z,16.30
2023-05-08T22:57:12.299Z,16.20
2023-05-08T22:59:39.136Z,16.20
2023-05-08T23:02:06.081Z,16.20
2023-05-08T23:04:33.552Z,16.20
2023-05-08T23:07:00.593Z,16.30
2023-05-08T23:09:27.531Z,16.30
2023-05-08T23:11:54.407Z,16.30
2023-05-08T23:14:21.320Z,16.20
2023-05-08T23:16:48.363Z,16.30
2023-05-08T23:19:16.154Z,16.30
2023-05-08T23:21:43.098Z,16.30
2023-05-08T23:24:10.265Z,16.20
2023-05-08T23:26:37.161Z,16.30
2023-05-08T23:29:04.416Z,16.30
2023-05-08T23:31:31.369Z,16.30
2023-05-08T23:33:58.408Z,16.30
2023-05-08T23:36:25.281Z,16.30
2023-05-08T23:38:52.157Z,16.20
2023-05-08T23:41:18.994Z,16.20
2023-05-08T23:43:45.821Z,16.20
2023-05-08T23:46:12.748Z,16.20
2023-05-08T23:48:39.662Z,16.20
2023-05-08T23:51:06.914Z,16.20
2023-05-08T23:53:33.824Z,16.40
2023-05-08T23:56:00.847Z,16.30
2023-05-08T23:58:27.715Z,16.20
